createdAt,value
2024-03-14T00:01:26.660Z,99065.00
2024-03-14T00:03:55.611Z,99067.00
2024-03-14T00:06:24.714Z,99068.40
2024-03-14T00:49:39.912Z,99045.60
2024-03-14T00:52:10.142Z,99045.80
2024-03-14T00:54:39.143Z,99043.20
2024-03-14T00:57:08.474Z,99039.40
2024-03-14T00:59:37.850Z,99037.40
2024-03-14T01:02:07.142Z,99032.60
2024-03-14T01:04:36.013Z,99037.20
2024-03-14T01:07:05.267Z,99031.40
2024-03-14T01:09:36.543Z,99026.60
2024-03-14T01:12:06.269Z,99020.80
2024-03-14T01:14:35.905Z,99031.40
2024-03-14T01:17:04.885Z,99023.60
2024-03-14T01:19:34.341Z,99020.40
2024-03-14T01:22:03.930Z,99016.00
2024-03-14T01:24:32.942Z,99005.40
2024-03-14T01:27:01.977Z,99005.00
2024-03-14T01:29:31.362Z,99009.00
2024-03-14T01:32:00.686Z,99008.80
2024-03-14T01:34:29.816Z,99008.40
2024-03-14T01:37:06.512Z,99005.80
2024-03-14T01:39:36.433Z,99009.80
2024-03-14T01:42:06.060Z,99009.60
2024-03-14T01:44:57.912Z,99001.60
2024-03-14T01:47:27.285Z,99004.00
2024-03-14T01:49:56.421Z,99000.20
2024-03-14T01:52:26.229Z,98992.20
2024-03-14T01:54:55.230Z,98996.60
2024-03-14T01:57:25.752Z,98999.20
2024-03-14T01:59:58.591Z,98996.00
2024-03-14T02:02:28.641Z,98991.60
2024-03-14T02:05:11.153Z,98997.40
2024-03-14T02:07:41.256Z,98997.00
2024-03-14T02:10:12.740Z,98997.60
2024-03-14T02:12:42.950Z,98995.40
2024-03-14T02:15:13.415Z,98993.20
2024-03-14T02:17:42.734Z,98991.20
2024-03-14T02:20:15.106Z,98995.60
2024-03-14T02:22:44.647Z,98997.00
2024-03-14T02:25:14.686Z,98998.20
2024-03-14T02:27:43.678Z,98992.60
2024-03-14T02:30:13.055Z,98992.40
2024-03-14T02:32:42.113Z,98986.60
2024-03-14T02:35:11.446Z,98991.60
2024-03-14T02:37:40.421Z,98995.00
2024-03-14T02:40:12.092Z,98992.00
2024-03-14T02:42:41.104Z,98989.60
2024-03-14T02:45:10.689Z,98995.80
2024-03-14T02:47:39.841Z,99000.00
2024-03-14T02:50:10.044Z,98994.20
2024-03-14T02:52:38.948Z,98998.60
2024-03-14T02:55:09.054Z,99004.80
2024-03-14T02:57:38.142Z,99009.60
2024-03-14T03:00:17.033Z,99001.00
2024-03-14T03:02:46.675Z,98998.20
2024-03-14T03:05:15.920Z,98994.00
2024-03-14T03:07:44.975Z,98992.20
2024-03-14T03:10:16.581Z,98995.80
2024-03-14T03:12:46.127Z,98989.80
2024-03-14T03:15:15.939Z,98995.40
2024-03-14T03:17:45.265Z,98991.60
2024-03-14T03:20:16.498Z,98989.20
2024-03-14T03:23:04.588Z,98991.60
2024-03-14T03:25:33.694Z,99000.20
2024-03-14T03:28:04.458Z,98996.40
2024-03-14T03:30:33.590Z,98992.20
2024-03-14T03:33:02.929Z,98990.00
2024-03-14T03:35:32.062Z,98989.40
2024-03-14T03:38:01.168Z,98989.20
2024-03-14T03:40:34.608Z,98988.80
2024-03-14T03:43:04.298Z,98988.40
2024-03-14T03:45:33.427Z,98990.80
2024-03-14T03:48:02.648Z,98992.20
2024-03-14T03:50:32.228Z,98986.60
2024-03-14T03:53:01.783Z,98990.60
2024-03-14T03:55:32.550Z,98992.40
2024-03-14T03:58:01.513Z,98987.20
2024-03-14T04:00:42.320Z,98993.40
2024-03-14T04:03:12.267Z,98994.00
2024-03-14T04:05:43.177Z,98994.00
2024-03-14T04:08:14.822Z,98995.80
2024-03-14T04:10:44.774Z,98999.60
2024-03-14T04:13:15.609Z,99003.00
2024-03-14T04:15:47.084Z,98997.40
2024-03-14T04:18:16.124Z,98992.80
2024-03-14T04:20:46.817Z,98998.80
2024-03-14T04:23:16.518Z,98997.20
2024-03-14T04:25:45.491Z,98999.00
2024-03-14T04:28:14.502Z,99000.40
2024-03-14T04:30:43.458Z,99003.60
2024-03-14T04:33:13.535Z,99003.60
2024-03-14T04:35:42.532Z,99007.80
2024-03-14T04:38:11.664Z,99007.80
2024-03-14T04:40:40.765Z,99014.20
2024-03-14T04:43:09.819Z,99020.40
2024-03-14T04:45:41.250Z,99021.00
2024-03-14T04:48:10.478Z,99019.00
2024-03-14T04:50:40.775Z,99017.80
2024-03-14T04:53:10.410Z,99021.20
2024-03-14T04:55:40.120Z,99024.80
2024-03-14T04:58:10.125Z,99021.00
2024-03-14T05:00:39.353Z,99017.80
2024-03-14T05:03:08.505Z,99020.40
2024-03-14T05:05:38.481Z,99018.60
2024-03-14T05:08:07.850Z,99024.40
2024-03-14T05:10:36.746Z,99020.80
2024-03-14T05:13:06.270Z,99024.60
2024-03-14T05:15:35.346Z,99025.60
2024-03-14T05:18:06.213Z,99023.40
2024-03-14T05:20:35.278Z,99025.40
2024-03-14T05:23:05.944Z,99025.60
2024-03-14T05:25:36.286Z,99029.20
2024-03-14T05:28:06.933Z,99039.20
2024-03-14T05:30:36.804Z,99039.20
2024-03-14T05:33:06.235Z,99037.20
2024-03-14T05:35:35.367Z,99041.40
2024-03-14T05:38:04.996Z,99037.60
2024-03-14T05:40:35.278Z,99035.40
2024-03-14T05:43:04.470Z,99044.20
2024-03-14T05:45:34.786Z,99047.40
2024-03-14T05:48:09.820Z,99054.60
2024-03-14T05:50:38.973Z,99055.20
2024-03-14T05:53:08.006Z,99063.80
2024-03-14T05:55:37.198Z,99058.40
2024-03-14T05:58:06.663Z,99060.00
2024-03-14T06:00:35.767Z,99060.40
2024-03-14T06:03:06.346Z,99060.80
2024-03-14T06:05:35.782Z,99058.20
2024-03-14T06:08:05.781Z,99060.00
2024-03-14T06:10:34.939Z,99060.00
2024-03-14T06:13:04.415Z,99057.80
2024-03-14T06:15:35.904Z,99060.00
2024-03-14T06:18:06.601Z,99054.60
2024-03-14T06:20:36.746Z,99059.40
2024-03-14T06:23:07.125Z,99059.60
2024-03-14T06:25:36.430Z,99054.20
2024-03-14T06:28:05.901Z,99051.80
2024-03-14T06:30:35.830Z,99050.60
2024-03-14T06:33:05.731Z,99048.80
2024-03-14T06:35:34.883Z,99049.40
2024-03-14T06:38:04.532Z,99052.80
2024-03-14T06:40:34.211Z,99056.80
2024-03-14T06:43:07.319Z,99059.00
2024-03-14T06:45:37.613Z,99063.00
2024-03-14T06:48:09.748Z,99063.80
2024-03-14T06:50:39.066Z,99070.40
2024-03-14T06:53:08.663Z,99068.80
2024-03-14T06:55:37.561Z,99063.80
2024-03-14T06:58:06.683Z,99064.80
2024-03-14T07:00:35.871Z,99064.80
2024-03-14T07:03:05.876Z,99065.60
2024-03-14T07:05:34.876Z,99062.60
2024-03-14T07:08:05.898Z,99066.20
2024-03-14T07:10:34.990Z,99066.40
2024-03-14T07:13:04.125Z,99070.60
2024-03-14T07:15:33.827Z,99070.20
2024-03-14T07:18:05.873Z,99066.60
2024-03-14T07:20:36.432Z,99068.20
2024-03-14T07:23:07.006Z,99065.20
2024-03-14T07:25:36.007Z,99060.00
2024-03-14T07:28:10.077Z,99060.60
2024-03-14T07:30:40.679Z,99061.00
2024-03-14T07:33:10.014Z,99062.60
2024-03-14T07:35:45.388Z,99065.40
2024-03-14T07:38:14.371Z,99061.20
2024-03-14T07:40:43.912Z,99064.20
2024-03-14T07:43:13.266Z,99066.00
2024-03-14T07:45:42.345Z,99058.20
2024-03-14T07:48:12.276Z,99061.00
2024-03-14T07:50:41.867Z,99065.60
2024-03-14T07:53:12.908Z,99061.40
2024-03-14T07:55:42.349Z,99064.40
2024-03-14T07:58:12.334Z,99068.80
2024-03-14T08:00:41.311Z,99067.20
2024-03-14T08:03:12.341Z,99071.20
2024-03-14T08:05:42.163Z,99070.40
2024-03-14T08:08:19.641Z,99071.80
2024-03-14T08:10:51.858Z,99070.00
2024-03-14T08:13:21.320Z,99067.80
2024-03-14T08:15:53.149Z,99063.20
2024-03-14T08:18:23.073Z,99064.00
2024-03-14T08:20:56.316Z,99065.60
2024-03-14T08:23:27.122Z,99059.00
2024-03-14T08:25:56.772Z,99061.20
2024-03-14T08:28:25.878Z,99063.20
2024-03-14T08:30:54.886Z,99062.40
2024-03-14T08:33:24.973Z,99058.80
2024-03-14T08:35:55.432Z,99058.00
2024-03-14T08:38:25.059Z,99056.00
2024-03-14T08:40:53.984Z,99054.40
2024-03-14T08:43:22.993Z,99063.80
2024-03-14T08:45:53.195Z,99063.80
2024-03-14T08:48:22.435Z,99062.00
2024-03-14T08:50:51.946Z,99059.40
2024-03-14T08:53:21.149Z,99064.20
2024-03-14T08:55:54.775Z,99072.80
2024-03-14T08:58:25.903Z,99067.80
2024-03-14T09:00:55.103Z,99069.20
2024-03-14T09:03:24.438Z,99069.20
2024-03-14T09:05:53.869Z,99065.40
2024-03-14T09:08:24.987Z,99062.80
2024-03-14T09:10:54.137Z,99065.60
2024-03-14T09:13:24.226Z,99064.20
2024-03-14T09:15:53.315Z,99063.00
2024-03-14T09:18:25.573Z,99057.40
2024-03-14T09:20:55.878Z,99054.20
2024-03-14T09:23:25.972Z,99057.20
2024-03-14T09:25:56.069Z,99055.80
2024-03-14T09:28:29.034Z,99055.80
2024-03-14T09:31:01.462Z,99048.80
2024-03-14T09:33:32.755Z,99045.80
2024-03-14T09:36:05.043Z,99045.20
2024-03-14T09:38:35.480Z,99046.00
2024-03-14T09:41:10.188Z,99043.00
2024-03-14T09:43:47.543Z,99040.00
2024-03-14T09:46:22.893Z,99044.00
2024-03-14T09:48:52.162Z,99041.60
2024-03-14T09:51:21.548Z,99043.00
2024-03-14T09:53:55.118Z,99044.80
2024-03-14T09:56:26.523Z,99041.40
2024-03-14T09:58:57.291Z,99035.40
2024-03-14T10:01:27.429Z,99036.60
2024-03-14T10:03:57.912Z,99029.20
2024-03-14T10:06:27.184Z,99029.60
2024-03-14T10:08:57.799Z,99034.40
2024-03-14T10:11:28.846Z,99027.20
2024-03-14T10:14:16.856Z,99027.20
2024-03-14T10:16:45.911Z,99022.80
2024-03-14T10:19:16.396Z,99022.20
2024-03-14T10:34:59.989Z,99007.20
2024-03-14T10:37:34.045Z,99009.60
2024-03-14T10:40:19.268Z,99008.60
2024-03-14T10:42:51.755Z,99010.20
2024-03-14T10:45:22.329Z,99008.00
2024-03-14T10:47:52.315Z,99008.40
2024-03-14T10:50:22.070Z,99008.00
2024-03-14T10:52:51.832Z,99007.80
2024-03-14T10:55:24.489Z,99006.40
2024-03-14T10:57:58.287Z,99005.00
2024-03-14T11:00:27.452Z,99003.80
2024-03-14T11:02:59.861Z,99002.00
2024-03-14T11:05:29.199Z,98998.20
2024-03-14T11:08:00.859Z,98997.80
2024-03-14T11:10:31.948Z,98995.40
2024-03-14T11:13:10.663Z,98997.60
2024-03-14T11:15:41.339Z,98996.40
2024-03-14T11:18:14.073Z,98994.40
2024-03-14T11:20:50.886Z,98997.00
2024-03-14T11:23:29.959Z,98993.40
2024-03-14T11:26:08.605Z,98992.20
2024-03-14T11:28:38.513Z,98990.40
2024-03-14T11:31:07.878Z,98988.60
2024-03-14T11:33:39.423Z,98989.40
2024-03-14T11:36:12.890Z,98987.20
2024-03-14T11:38:44.733Z,98997.00
2024-03-14T11:41:14.627Z,98992.80
2024-03-14T11:43:45.019Z,98990.40
2024-03-14T11:46:15.782Z,98989.20
2024-03-14T11:48:45.836Z,98984.80
2024-03-14T11:51:19.237Z,98987.80
2024-03-14T11:53:51.777Z,98980.00
2024-03-14T11:56:23.371Z,98980.40
2024-03-14T11:58:52.796Z,98978.80
2024-03-14T12:01:28.004Z,98981.80
2024-03-14T12:04:01.782Z,98976.20
2024-03-14T12:06:32.311Z,98967.80
2024-03-14T12:09:01.527Z,98968.80
2024-03-14T12:11:33.023Z,98971.80
2024-03-14T12:14:02.445Z,98973.40
2024-03-14T12:16:33.050Z,98972.20
2024-03-14T12:19:17.571Z,98975.80
2024-03-14T12:22:00.762Z,98970.00
2024-03-14T12:24:30.094Z,98972.20
2024-03-14T12:26:59.387Z,98966.80
2024-03-14T12:29:29.335Z,98967.40
2024-03-14T12:32:00.628Z,98963.80
2024-03-14T12:34:30.821Z,98962.00
2024-03-14T12:37:01.141Z,98965.20
2024-03-14T12:39:30.393Z,98959.00
2024-03-14T12:41:59.639Z,98960.20
2024-03-14T12:44:29.143Z,98963.40
2024-03-14T12:46:58.665Z,98955.00
2024-03-14T12:49:28.916Z,98958.20
2024-03-14T12:51:58.075Z,98957.00
2024-03-14T12:54:35.922Z,98959.20
2024-03-14T12:57:10.085Z,98955.00
2024-03-14T12:59:39.315Z,98954.60
2024-03-14T13:02:12.915Z,98951.00
2024-03-14T13:04:43.599Z,98949.40
2024-03-14T13:07:19.365Z,98953.40
2024-03-14T13:10:10.398Z,98955.00
2024-03-14T13:12:39.746Z,98951.80
2024-03-14T13:15:12.001Z,98948.00
2024-03-14T13:17:47.217Z,98944.80
2024-03-14T13:20:19.497Z,98947.40
2024-03-14T13:22:49.295Z,98940.40
2024-03-14T13:25:18.739Z,98936.20
2024-03-14T13:27:48.926Z,98936.80
2024-03-14T13:30:20.390Z,98939.20
2024-03-14T13:32:57.132Z,98938.00
2024-03-14T13:35:30.717Z,98933.40
2024-03-14T13:38:00.842Z,98931.40
2024-03-14T13:40:31.744Z,98928.80
2024-03-14T13:43:07.260Z,98927.60
2024-03-14T13:45:44.658Z,98927.40
2024-03-14T13:48:18.845Z,98926.60
2024-03-14T13:50:54.588Z,98927.20
2024-03-14T13:56:02.286Z,98927.80
2024-03-14T13:58:39.289Z,98927.00
2024-03-14T14:01:20.147Z,98930.60
2024-03-14T14:03:53.830Z,98933.00
2024-03-14T14:06:24.204Z,98928.60
2024-03-14T14:08:55.832Z,98924.20
2024-03-14T14:11:28.183Z,98927.20
2024-03-14T14:13:58.188Z,98925.20
2024-03-14T14:16:28.700Z,98924.20
2024-03-14T14:19:00.778Z,98921.20
2024-03-14T14:21:31.808Z,98922.40
2024-03-14T14:24:02.008Z,98923.20
2024-03-14T14:26:33.188Z,98924.60
2024-03-14T14:29:05.279Z,98927.20
2024-03-14T14:31:34.775Z,98922.00
2024-03-14T14:34:04.848Z,98920.80
2024-03-14T14:36:35.053Z,98917.20
2024-03-14T14:39:04.754Z,98920.00
2024-03-14T14:41:34.625Z,98919.40
2024-03-14T14:44:04.438Z,98921.80
2024-03-14T14:46:35.891Z,98913.80
2024-03-14T14:49:08.180Z,98916.20
2024-03-14T14:51:38.642Z,98914.80
2024-03-14T14:54:08.932Z,98914.40
2024-03-14T14:56:44.353Z,98913.80
2024-03-14T14:59:13.422Z,98909.80
2024-03-14T15:01:42.835Z,98909.60
2024-03-14T15:04:13.459Z,98902.60
2024-03-14T15:06:42.563Z,98905.80
2024-03-14T15:09:15.154Z,98903.40
2024-03-14T15:11:45.939Z,98902.20
2024-03-14T15:14:15.165Z,98904.80
2024-03-14T15:16:44.214Z,98900.80
2024-03-14T15:19:13.303Z,98894.60
2024-03-14T15:21:42.559Z,98898.00
2024-03-14T15:24:12.653Z,98899.60
2024-03-14T15:26:44.505Z,98906.80
2024-03-14T15:29:14.736Z,98909.00
2024-03-14T15:31:43.726Z,98910.60
2024-03-14T15:34:13.481Z,98909.40
2024-03-14T15:36:42.667Z,98910.60
2024-03-14T15:39:11.765Z,98911.40
2024-03-14T15:41:42.173Z,98913.40
2024-03-14T15:44:11.384Z,98911.20
2024-03-14T15:46:40.374Z,98905.40
2024-03-14T15:49:09.585Z,98913.60
2024-03-14T15:51:39.717Z,98909.80
2024-03-14T15:54:08.964Z,98915.00
2024-03-14T15:56:37.911Z,98918.40
2024-03-14T15:59:06.913Z,98912.20
2024-03-14T16:01:37.598Z,98910.80
2024-03-14T16:04:08.745Z,98916.80
2024-03-14T16:06:38.631Z,98915.80
2024-03-14T16:09:09.735Z,98911.80
2024-03-14T16:11:40.284Z,98916.20
2024-03-14T16:14:10.009Z,98917.00
2024-03-14T16:16:39.622Z,98910.80
2024-03-14T16:19:13.597Z,98915.80
2024-03-14T16:21:45.336Z,98915.00
2024-03-14T16:24:14.491Z,98915.40
2024-03-14T16:26:44.163Z,98913.80
2024-03-14T16:29:13.664Z,98914.20
2024-03-14T16:31:44.832Z,98915.20
2024-03-14T16:34:15.136Z,98917.60
2024-03-14T16:36:45.939Z,98921.00
2024-03-14T16:39:19.268Z,98920.60
2024-03-14T16:41:48.524Z,98924.80
2024-03-14T16:44:18.040Z,98921.40
2024-03-14T16:46:47.149Z,98918.20
2024-03-14T16:49:16.810Z,98926.00
2024-03-14T16:51:45.813Z,98925.20
2024-03-14T16:54:21.998Z,98922.80
2024-03-14T16:56:52.511Z,98922.20
2024-03-14T16:59:21.595Z,98919.80
2024-03-14T17:01:51.097Z,98920.80
2024-03-14T17:04:20.349Z,98921.80
2024-03-14T17:06:49.722Z,98925.60
2024-03-14T17:09:19.768Z,98930.40
2024-03-14T17:11:48.873Z,98928.40
2024-03-14T17:14:18.019Z,98934.60
2024-03-14T17:16:52.734Z,98937.00
2024-03-14T17:19:27.653Z,98939.80
2024-03-14T17:21:56.713Z,98938.80
2024-03-14T17:24:26.751Z,98934.40
2024-03-14T17:26:56.925Z,98935.00
2024-03-14T17:29:29.199Z,98931.80
2024-03-14T17:32:00.166Z,98933.40
2024-03-14T17:34:30.425Z,98938.20
2024-03-14T17:37:01.596Z,98936.20
2024-03-14T17:39:32.358Z,98935.60
2024-03-14T17:42:01.691Z,98941.60
2024-03-14T17:44:31.491Z,98936.00
2024-03-14T17:47:00.691Z,98935.80
2024-03-14T17:49:30.096Z,98937.60
2024-03-14T17:51:59.276Z,98940.80
2024-03-14T17:54:28.427Z,98939.60
2024-03-14T17:57:00.551Z,98941.20
2024-03-14T17:59:31.514Z,98941.40
2024-03-14T18:02:04.928Z,98943.60
2024-03-14T18:04:34.286Z,98945.20
2024-03-14T18:07:04.625Z,98943.40
2024-03-14T18:09:33.621Z,98944.80
2024-03-14T18:12:02.835Z,98943.00
2024-03-14T18:14:35.154Z,98942.80
2024-03-14T18:17:04.594Z,98940.20
2024-03-14T18:19:33.744Z,98944.60
2024-03-14T18:22:03.916Z,98941.20
2024-03-14T18:24:36.345Z,98939.20
2024-03-14T18:27:06.893Z,98938.80
2024-03-14T18:29:36.600Z,98940.20
2024-03-14T18:32:13.362Z,98940.80
2024-03-14T18:34:42.624Z,98945.00
2024-03-14T18:37:11.633Z,98947.20
2024-03-14T18:39:41.768Z,98952.20
2024-03-14T18:42:11.051Z,98954.00
2024-03-14T18:44:47.729Z,98958.60
2024-03-14T18:47:17.906Z,98953.00
2024-03-14T18:49:47.109Z,98956.40
2024-03-14T18:52:16.908Z,98956.00
2024-03-14T18:54:49.741Z,98959.00
2024-03-14T18:57:19.239Z,98962.80
2024-03-14T18:59:48.295Z,98958.20
2024-03-14T19:02:20.878Z,98960.60
2024-03-14T19:04:51.908Z,98963.60
2024-03-14T19:07:21.260Z,98969.00
2024-03-14T19:09:50.574Z,98968.20
2024-03-14T19:12:20.141Z,98966.20
2024-03-14T19:14:49.600Z,98965.20
2024-03-14T19:17:22.118Z,98967.20
2024-03-14T19:19:53.190Z,98969.80
2024-03-14T19:22:22.306Z,98965.20
2024-03-14T19:24:51.418Z,98965.00
2024-03-14T19:27:20.562Z,98968.80
2024-03-14T19:29:49.709Z,98967.80
2024-03-14T19:32:19.816Z,98968.20
2024-03-14T19:34:49.366Z,98968.00
2024-03-14T19:37:19.514Z,98972.40
2024-03-14T19:40:27.142Z,98973.80
2024-03-14T19:42:59.663Z,98967.00
2024-03-14T19:45:32.616Z,98966.60
2024-03-14T19:48:05.549Z,98967.40
2024-03-14T19:50:38.015Z,98966.80
2024-03-14T19:53:11.150Z,98966.60
2024-03-14T19:55:43.993Z,98969.20
2024-03-14T19:58:19.826Z,98965.40
2024-03-14T20:00:52.749Z,98965.80
2024-03-14T20:03:25.800Z,98970.20
2024-03-14T20:05:59.860Z,98964.20
2024-03-14T20:08:32.230Z,98969.00
2024-03-14T20:11:05.102Z,98964.80
2024-03-14T20:13:37.747Z,98962.00
2024-03-14T20:16:16.230Z,98961.40
2024-03-14T20:18:48.959Z,98957.60
2024-03-14T20:21:21.589Z,98962.20
2024-03-14T20:23:54.078Z,98961.00
2024-03-14T20:26:27.397Z,98956.80
2024-03-14T20:29:01.528Z,98960.00
2024-03-14T20:31:34.099Z,98963.20
2024-03-14T20:34:08.904Z,98952.20
2024-03-14T20:36:41.722Z,98951.80
2024-03-14T20:39:21.252Z,98951.40
2024-03-14T20:41:55.172Z,98954.80
2024-03-14T20:44:29.270Z,98950.80
2024-03-14T20:47:01.759Z,98948.00
2024-03-14T20:49:34.466Z,98951.20
2024-03-14T20:52:07.675Z,98948.20
2024-03-14T20:54:41.766Z,98947.60
2024-03-14T20:57:15.663Z,98943.60
2024-03-14T20:59:48.963Z,98946.00
2024-03-14T21:02:25.603Z,98946.40
2024-03-14T21:04:59.392Z,98947.00
2024-03-14T21:07:31.846Z,98952.80
2024-03-14T21:10:05.443Z,98949.60
2024-03-14T21:12:42.900Z,98945.60
2024-03-14T21:15:16.733Z,98951.40
2024-03-14T21:17:50.453Z,98950.80
2024-03-14T21:20:24.839Z,98956.80
2024-03-14T21:22:59.499Z,98955.80
2024-03-14T21:25:31.889Z,98952.00
2024-03-14T21:28:04.555Z,98953.80
2024-03-14T21:30:38.945Z,98954.60
2024-03-14T21:33:11.891Z,98958.20
2024-03-14T21:35:45.647Z,98956.40
2024-03-14T21:38:18.316Z,98955.00
2024-03-14T21:40:50.721Z,98952.60
2024-03-14T21:43:23.253Z,98947.40
2024-03-14T21:45:55.697Z,98950.20
2024-03-14T21:48:28.411Z,98954.60
2024-03-14T21:51:01.097Z,98957.80
2024-03-14T21:53:33.588Z,98955.60
2024-03-14T21:56:09.889Z,98957.40
2024-03-14T21:58:49.873Z,98959.20
2024-03-14T22:01:27.165Z,98962.40
2024-03-14T22:03:59.796Z,98958.00
2024-03-14T22:06:32.237Z,98960.00
2024-03-14T22:09:05.093Z,98961.40
2024-03-14T22:11:38.064Z,98955.00
2024-03-14T22:14:10.749Z,98955.60
2024-03-14T22:16:43.139Z,98952.60
2024-03-14T22:19:16.054Z,98951.00
2024-03-14T22:21:48.675Z,98951.20
2024-03-14T22:24:22.623Z,98950.80
2024-03-14T22:26:55.300Z,98946.60
2024-03-14T22:29:29.040Z,98950.20
2024-03-14T22:32:01.903Z,98952.00
2024-03-14T22:34:37.173Z,98948.80
2024-03-14T22:37:09.639Z,98944.20
2024-03-14T22:39:43.076Z,98941.40
2024-03-14T22:42:15.929Z,98936.00
2024-03-14T22:44:49.587Z,98941.40
2024-03-14T22:47:22.179Z,98944.80
2024-03-14T22:49:54.681Z,98941.20
2024-03-14T22:52:27.661Z,98933.40
2024-03-14T22:55:00.129Z,98935.00
2024-03-14T22:57:34.119Z,98927.40
2024-03-14T23:00:20.501Z,98929.60
2024-03-14T23:02:52.996Z,98931.00
2024-03-14T23:05:25.406Z,98928.00
2024-03-14T23:07:58.281Z,98922.00
2024-03-14T23:10:30.911Z,98927.20
2024-03-14T23:13:03.455Z,98926.80
2024-03-14T23:15:38.908Z,98922.00
2024-03-14T23:18:12.031Z,98917.60
2024-03-14T23:20:45.026Z,98919.20
2024-03-14T23:23:18.510Z,98921.20
2024-03-14T23:25:50.922Z,98912.40
2024-03-14T23:28:25.762Z,98916.00
2024-03-14T23:30:58.427Z,98919.60
2024-03-14T23:33:30.921Z,98919.80
2024-03-14T23:36:03.411Z,98922.00
2024-03-14T23:38:36.137Z,98920.20
2024-03-14T23:41:10.416Z,98924.00
2024-03-14T23:43:43.390Z,98923.60
2024-03-14T23:46:16.068Z,98922.00
2024-03-14T23:48:48.996Z,98924.20
2024-03-14T23:51:21.720Z,98925.20
2024-03-14T23:53:54.233Z,98935.40
2024-03-14T23:56:26.669Z,98930.00
2024-03-14T23:58:59.100Z,98927.20
